createdAt,value
2018-09-12T00:01:18.135Z,97718.94
2018-09-12T00:03:47.273Z,97720.19
2018-09-12T00:06:16.826Z,97713.80
2018-09-12T00:08:46.016Z,97703.58
2018-09-12T00:11:16.774Z,97711.67
2018-09-12T00:13:45.945Z,97710.81
2018-09-12T00:16:21.532Z,97713.38
2018-09-12T00:18:50.675Z,97712.11
2018-09-12T00:21:24.364Z,97708.70
2018-09-12T00:23:53.557Z,97709.95
2018-09-12T00:26:24.900Z,97706.98
2018-09-12T00:28:54.102Z,97709.98
2018-09-12T00:31:37.812Z,97702.70
2018-09-12T00:34:07.348Z,97710.80
2018-09-12T00:36:36.561Z,97711.67
2018-09-12T00:39:09.606Z,97709.95
2018-09-12T00:41:38.896Z,97712.52
2018-09-12T00:44:08.820Z,97711.66
2018-09-12T00:46:39.613Z,97701.42
2018-09-12T00:49:09.147Z,97706.09
2018-09-12T00:51:38.360Z,97708.66
2018-09-12T00:54:08.221Z,97709.94
2018-09-12T00:56:39.364Z,97703.55
2018-09-12T00:59:09.708Z,97694.57
2018-09-12T01:01:39.001Z,97699.28
2018-09-12T01:04:08.614Z,97700.11
2018-09-12T01:06:37.882Z,97705.65
2018-09-12T01:09:08.052Z,97702.23
2018-09-12T01:11:37.251Z,97700.52
2018-09-12T01:14:06.768Z,97699.66
2018-09-12T01:16:38.688Z,97697.09
2018-09-12T01:19:08.013Z,97693.65
2018-09-12T01:21:37.219Z,97691.95
2018-09-12T01:24:06.670Z,97691.51
2018-09-12T01:26:35.850Z,97689.37
2018-09-12T01:29:05.126Z,97694.45
2018-09-12T01:31:36.096Z,97690.62
2018-09-12T01:34:05.490Z,97683.33
2018-09-12T01:36:35.708Z,97686.30
2018-09-12T01:39:07.532Z,97681.60
2018-09-12T01:41:36.746Z,97683.30
2018-09-12T01:44:07.766Z,97691.83
2018-09-12T01:46:36.900Z,97681.60
2018-09-12T01:49:06.045Z,97674.34
2018-09-12T01:51:35.592Z,97677.32
2018-09-12T01:54:04.748Z,97678.19
2018-09-12T01:56:34.559Z,97673.07
2018-09-12T01:59:04.705Z,97672.66
2018-09-12T02:27:48.080Z,97664.46
2018-09-12T02:30:17.243Z,97668.30
2018-09-12T02:32:46.404Z,97663.59
2018-09-12T02:35:17.734Z,97660.17
2018-09-12T02:37:51.017Z,97661.87
2018-09-12T02:40:20.157Z,97655.89
2018-09-12T02:56:04.353Z,97642.66
2018-09-12T02:58:33.898Z,97633.68
2018-09-12T03:01:08.509Z,97632.84
2018-09-12T03:03:41.010Z,97637.91
2018-09-12T03:06:13.489Z,97630.66
2018-09-12T03:08:42.693Z,97630.25
2018-09-12T03:11:12.285Z,97624.27
2018-09-12T03:13:43.651Z,97624.69
2018-09-12T03:16:14.693Z,97619.57
2018-09-12T03:18:48.666Z,97617.42
2018-09-12T03:21:18.312Z,97613.14
2018-09-12T03:23:47.448Z,97616.09
2018-09-12T03:26:16.951Z,97613.51
2018-09-12T03:28:46.139Z,97611.39
2018-09-12T03:31:15.654Z,97605.84
2018-09-12T03:33:48.226Z,97604.55
2018-09-12T03:36:19.619Z,97594.31
2018-09-12T03:38:51.768Z,97602.41
2018-09-12T03:41:20.934Z,97597.27
2018-09-12T03:43:50.084Z,97599.38
2018-09-12T03:46:19.606Z,97591.72
2018-09-12T03:48:48.887Z,97590.84
2018-09-12T03:51:20.232Z,97601.91
2018-09-12T03:53:49.414Z,97599.77
2018-09-12T03:56:19.808Z,97596.77
2018-09-12T03:58:49.035Z,97593.80
2018-09-12T04:01:18.267Z,97591.70
2018-09-12T04:03:47.437Z,97585.73
2018-09-12T04:06:18.205Z,97589.56
2018-09-12T04:08:47.401Z,97584.87
2018-09-12T04:11:16.978Z,97587.42
2018-09-12T04:13:46.185Z,97591.25
2018-09-12T04:16:15.340Z,97589.11
2018-09-12T04:18:46.208Z,97580.17
2018-09-12T04:21:15.383Z,97580.98
2018-09-12T04:23:47.352Z,97578.83
2018-09-12T04:26:18.638Z,97578.83
2018-09-12T04:28:47.877Z,97575.41
2018-09-12T04:31:17.024Z,97579.23
2018-09-12T04:33:46.180Z,97570.25
2018-09-12T04:36:15.427Z,97573.59
2018-09-12T04:38:44.560Z,97573.59
2018-09-12T04:41:14.165Z,97570.17
2018-09-12T04:43:43.392Z,97569.31
2018-09-12T04:46:12.907Z,97571.86
2018-09-12T04:48:42.082Z,97571.86
2018-09-12T04:51:11.722Z,97572.72
2018-09-12T04:53:40.833Z,97569.31
2018-09-12T04:56:10.354Z,97573.59
2018-09-12T04:58:39.486Z,97576.96
2018-09-12T05:01:10.430Z,97575.69
2018-09-12T05:03:39.666Z,97571.86
2018-09-12T05:06:11.394Z,97576.96
2018-09-12T05:08:50.494Z,97574.41
2018-09-12T05:11:19.596Z,97583.73
2018-09-12T05:13:48.782Z,97579.44
2018-09-12T05:16:17.872Z,97577.75
2018-09-12T05:20:33.188Z,97573.94
2018-09-12T05:23:04.976Z,97570.97
2018-09-12T05:25:34.514Z,97575.21
2018-09-12T05:28:05.464Z,97574.34
2018-09-12T05:30:36.794Z,97576.08
2018-09-12T05:46:28.206Z,97579.59
2018-09-12T05:49:05.627Z,97585.60
2018-09-12T05:51:47.062Z,97585.63
2018-09-12T05:54:21.720Z,97578.02
2018-09-12T05:56:55.011Z,97580.62
2018-09-12T05:59:29.863Z,97577.67
2018-09-12T06:02:03.043Z,97578.96
2018-09-12T06:04:36.726Z,97578.63
2018-09-12T06:07:09.527Z,97579.95
2018-09-12T06:09:43.407Z,97581.69
2018-09-12T06:12:16.201Z,97579.18
2018-09-12T06:14:47.546Z,97573.25
2018-09-12T06:17:19.134Z,97574.98
2018-09-12T06:19:50.299Z,97570.77
2018-09-12T06:22:24.863Z,97574.63
2018-09-12T06:24:59.237Z,97579.77
2018-09-12T06:27:30.247Z,97581.06
2018-09-12T06:29:59.446Z,97581.09
2018-09-12T06:32:28.697Z,97575.13
2018-09-12T06:35:05.977Z,97574.28
2018-09-12T06:37:38.380Z,97575.20
2018-09-12T06:42:41.284Z,97573.49
2018-09-12T06:45:10.804Z,97576.03
2018-09-12T06:47:43.332Z,97572.64
2018-09-12T06:50:12.509Z,97575.19
2018-09-12T06:52:43.481Z,97573.03
2018-09-12T06:55:12.854Z,97576.02
2018-09-12T06:57:42.001Z,97574.28
2018-09-12T07:00:11.548Z,97569.16
2018-09-12T07:02:42.663Z,97572.55
2018-09-12T07:05:12.177Z,97570.83
2018-09-12T07:07:41.479Z,97577.23
2018-09-12T07:10:10.993Z,97579.32
2018-09-12T07:12:40.286Z,97572.48
2018-09-12T07:15:09.844Z,97568.16
2018-09-12T07:17:40.667Z,97568.98
2018-09-12T07:20:10.324Z,97572.38
2018-09-12T07:22:40.230Z,97571.45
2018-09-12T07:25:09.786Z,97566.25
2018-09-12T07:27:39.187Z,97562.77
2018-09-12T07:30:10.967Z,97567.80
2018-09-12T07:32:40.156Z,97559.61
2018-09-12T07:35:09.714Z,97562.07
2018-09-12T07:37:39.160Z,97568.02
2018-09-12T07:40:09.281Z,97566.23
2018-09-12T07:42:40.017Z,97567.89
2018-09-12T07:45:10.482Z,97568.22
2018-09-12T07:47:39.667Z,97567.69
2018-09-12T07:50:09.432Z,97568.89
2018-09-12T07:52:39.445Z,97567.92
2018-09-12T07:55:10.124Z,97565.20
2018-09-12T07:57:40.332Z,97566.86
2018-09-12T08:00:10.815Z,97572.70
2018-09-12T08:02:40.006Z,97573.08
2018-09-12T08:05:09.654Z,97569.08
2018-09-12T08:07:39.618Z,97579.23
2018-09-12T08:10:10.413Z,97579.96
2018-09-12T08:12:39.588Z,97574.62
2018-09-12T08:15:09.393Z,97577.06
2018-09-12T08:22:40.148Z,97582.68
2018-09-12T08:25:09.795Z,97579.48
2018-09-12T08:27:39.714Z,97578.86
2018-09-12T08:30:09.784Z,97583.00
2018-09-12T08:32:39.930Z,97580.98
2018-09-12T08:35:09.678Z,97586.31
2018-09-12T08:37:39.017Z,97583.21
2018-09-12T08:40:09.878Z,97581.42
2018-09-12T08:42:41.271Z,97584.34
2018-09-12T08:45:11.714Z,97591.91
2018-09-12T08:47:41.706Z,97589.58
2018-09-12T08:50:12.471Z,97589.80
2018-09-12T08:52:42.482Z,97587.52
2018-09-12T08:55:11.644Z,97590.73
2018-09-12T08:57:40.809Z,97587.05
2018-09-12T09:00:16.721Z,97585.91
2018-09-12T09:02:53.977Z,97588.30
2018-09-12T09:05:37.111Z,97588.03
2018-09-12T09:08:20.151Z,97595.53
2018-09-12T09:10:58.858Z,97602.17
2018-09-12T09:16:01.193Z,97593.27
2018-09-12T09:18:30.352Z,97584.83
2018-09-12T09:20:59.549Z,97582.50
2018-09-12T09:23:28.829Z,97580.61
2018-09-12T09:26:10.595Z,97585.89
2018-09-12T09:28:46.489Z,97583.55
2018-09-12T09:31:24.157Z,97585.95
2018-09-12T09:33:57.193Z,97576.20
2018-09-12T09:36:35.424Z,97575.96
2018-09-12T09:39:06.805Z,97570.02
2018-09-12T09:41:41.166Z,97556.50
2018-09-12T09:44:11.247Z,97558.58
2018-09-12T09:46:40.991Z,97563.50
2018-09-12T09:49:11.304Z,97562.47
2018-09-12T09:51:52.342Z,97562.16
2018-09-12T09:54:23.788Z,97561.07
2018-09-12T09:56:59.155Z,97555.26
2018-09-12T09:59:34.988Z,97561.56
2018-09-12T10:05:00.272Z,97553.16
2018-09-12T10:07:34.693Z,97551.38
2018-09-12T10:10:04.501Z,97551.09
2018-09-12T10:12:34.429Z,97555.26
2018-09-12T10:15:04.781Z,97553.36
2018-09-12T10:17:34.829Z,97551.08
2018-09-12T10:20:03.985Z,97552.30
2018-09-12T10:22:33.293Z,97547.13
2018-09-12T10:25:02.544Z,97550.48
2018-09-12T10:27:31.724Z,97547.59
2018-09-12T10:30:00.889Z,97543.83
2018-09-12T10:32:31.074Z,97544.24
2018-09-12T10:35:00.281Z,97547.83
2018-09-12T10:37:29.576Z,97547.09
2018-09-12T10:39:58.814Z,97546.90
2018-09-12T10:42:28.092Z,97539.80
2018-09-12T10:44:57.240Z,97544.47
2018-09-12T10:47:29.022Z,97541.31
2018-09-12T10:49:58.106Z,97540.51
2018-09-12T10:52:27.352Z,97533.19
2018-09-12T10:54:56.506Z,97526.17
2018-09-12T10:57:25.639Z,97522.00
2018-09-12T10:59:54.850Z,97519.70
2018-09-12T11:02:24.836Z,97509.19
2018-09-12T11:04:54.068Z,97513.97
2018-09-12T11:07:23.289Z,97510.59
2018-09-12T11:09:52.546Z,97504.53
2018-09-12T11:12:21.728Z,97512.06
2018-09-12T11:15:01.648Z,97499.80
2018-09-12T11:17:33.106Z,97496.71
2018-09-12T11:20:04.200Z,97495.42
2018-09-12T11:22:37.955Z,97492.59
2018-09-12T11:25:12.210Z,97489.86
2018-09-12T11:27:44.934Z,97482.41
2018-09-12T11:32:51.218Z,97477.85
2018-09-12T11:35:35.534Z,97474.39
2018-09-12T11:38:10.757Z,97471.69
2018-09-12T11:40:46.855Z,97470.52
2018-09-12T11:46:11.056Z,97467.39
2018-09-12T11:48:47.899Z,97452.88
2018-09-12T11:51:17.845Z,97458.98
2018-09-12T11:53:47.068Z,97456.73
2018-09-12T11:56:16.240Z,97452.12
2018-09-12T11:58:45.526Z,97444.09
2018-09-12T12:01:16.184Z,97444.09
2018-09-12T12:03:45.423Z,97438.22
2018-09-12T12:06:14.682Z,97444.72
2018-09-12T12:08:43.954Z,97434.27
2018-09-12T12:11:13.460Z,97430.77
2018-09-12T12:13:42.879Z,97439.47
2018-09-12T12:16:12.810Z,97437.65
2018-09-12T12:18:42.407Z,97429.60
2018-09-12T12:21:12.693Z,97426.57
2018-09-12T12:23:42.389Z,97420.59
2018-09-12T12:26:13.443Z,97419.31
2018-09-12T12:28:44.297Z,97412.34
2018-09-12T12:31:13.583Z,97410.36
2018-09-12T12:33:42.719Z,97407.61
2018-09-12T12:36:12.783Z,97409.31
2018-09-12T12:38:42.509Z,97402.12
2018-09-12T12:41:12.794Z,97391.26
2018-09-12T12:43:43.591Z,97393.42
2018-09-12T12:46:15.160Z,97384.67
2018-09-12T12:48:44.363Z,97387.77
2018-09-12T12:51:13.545Z,97381.17
2018-09-12T12:53:42.733Z,97389.19
2018-09-12T12:56:13.585Z,97376.41
2018-09-12T12:58:42.704Z,97375.62
2018-09-12T13:01:12.794Z,97371.70
2018-09-12T13:03:42.741Z,97370.48
2018-09-12T13:06:13.053Z,97363.80
2018-09-12T13:08:43.107Z,97358.05
2018-09-12T13:11:13.781Z,97359.42
2018-09-12T13:13:44.092Z,97358.49
2018-09-12T13:16:13.335Z,97356.82
2018-09-12T13:18:42.735Z,97345.16
2018-09-12T13:21:13.155Z,97337.17
2018-09-12T13:23:42.787Z,97342.98
2018-09-12T13:26:13.106Z,97343.81
2018-09-12T13:28:42.859Z,97346.50
2018-09-12T13:31:13.293Z,97337.55
2018-09-12T13:33:43.082Z,97332.42
2018-09-12T13:36:13.226Z,97332.08
2018-09-12T13:38:44.395Z,97330.69
2018-09-12T13:41:13.799Z,97321.80
2018-09-12T13:43:45.631Z,97319.05
2018-09-12T13:46:14.921Z,97317.62
2018-09-12T13:48:44.195Z,97316.03
2018-09-12T13:51:13.479Z,97313.17
2018-09-12T13:53:45.090Z,97307.99
2018-09-12T13:56:15.991Z,97301.91
2018-09-12T13:58:47.448Z,97303.08
2018-09-12T14:01:16.760Z,97307.04
2018-09-12T14:03:45.921Z,97291.29
2018-09-12T14:06:15.097Z,97295.94
2018-09-12T14:08:44.268Z,97295.28
2018-09-12T14:11:13.773Z,97292.12
2018-09-12T14:13:43.300Z,97291.97
2018-09-12T14:21:12.501Z,97297.25
2018-09-12T14:23:41.960Z,97293.35
2018-09-12T14:26:12.318Z,97294.49
2018-09-12T14:28:41.693Z,97287.09
2018-09-12T14:31:11.316Z,97281.33
2018-09-12T14:33:40.630Z,97282.47
2018-09-12T14:36:10.266Z,97271.50
2018-09-12T14:38:44.148Z,97270.36
2018-09-12T14:41:18.370Z,97275.02
2018-09-12T14:43:52.432Z,97273.57
2018-09-12T14:46:25.959Z,97271.55
2018-09-12T14:49:01.683Z,97268.66
2018-09-12T14:51:35.268Z,97261.47
2018-09-12T14:54:08.122Z,97256.56
2018-09-12T14:56:48.419Z,97251.94
2018-09-12T14:59:19.606Z,97241.20
2018-09-12T15:25:40.086Z,97222.70
2018-09-12T15:28:12.213Z,97218.91
2018-09-12T15:30:43.940Z,97214.24
2018-09-12T15:38:09.160Z,97213.93
2018-09-12T15:40:40.384Z,97218.90
2018-09-12T15:43:11.929Z,97213.68
2018-09-12T15:45:41.106Z,97204.78
2018-09-12T15:51:03.662Z,97201.88
2018-09-12T15:53:32.964Z,97208.99
2018-09-12T15:56:02.237Z,97204.09
2018-09-12T15:58:31.456Z,97200.52
2018-09-12T16:01:00.693Z,97199.50
2018-09-12T16:03:31.679Z,97200.54
2018-09-12T16:06:01.930Z,97199.47
2018-09-12T16:08:31.123Z,97194.83
2018-09-12T16:11:00.431Z,97194.06
2018-09-12T16:13:30.596Z,97189.71
2018-09-12T16:15:59.810Z,97185.36
2018-09-12T16:18:31.026Z,97182.86
2018-09-12T16:21:01.857Z,97179.30
2018-09-12T16:23:31.052Z,97175.16
2018-09-12T16:26:00.265Z,97169.31
2018-09-12T16:28:29.575Z,97166.34
2018-09-12T16:30:58.774Z,97165.89
2018-09-12T16:33:27.980Z,97166.34
2018-09-12T16:35:57.204Z,97168.98
2018-09-12T16:38:27.204Z,97162.34
2018-09-12T16:40:56.563Z,97169.33
2018-09-12T16:43:25.814Z,97159.78
2018-09-12T16:45:55.833Z,97158.54
2018-09-12T16:48:25.237Z,97159.91
2018-09-12T16:50:56.268Z,97159.22
2018-09-12T16:53:26.175Z,97159.52
2018-09-12T16:55:55.362Z,97160.95
2018-09-12T16:58:24.710Z,97161.55
2018-09-12T17:00:57.008Z,97156.78
2018-09-12T17:03:26.274Z,97155.52
2018-09-12T17:05:58.148Z,97156.07
2018-09-12T17:08:27.644Z,97153.98
2018-09-12T17:10:56.937Z,97152.73
2018-09-12T17:13:26.195Z,97154.70
2018-09-12T17:15:55.554Z,97157.80
2018-09-12T17:18:25.600Z,97160.03
2018-09-12T17:20:54.787Z,97167.27
2018-09-12T17:23:24.102Z,97163.41
2018-09-12T17:25:53.398Z,97160.58
2018-09-12T17:28:22.672Z,97155.01
2018-09-12T17:30:52.082Z,97163.97
2018-09-12T17:33:21.471Z,97160.47
2018-09-12T17:35:50.827Z,97156.08
2018-09-12T17:38:20.106Z,97158.75
2018-09-12T17:40:51.076Z,97155.17
2018-09-12T17:43:21.942Z,97158.66
2018-09-12T17:45:51.515Z,97157.43
2018-09-12T17:48:20.771Z,97156.56
2018-09-12T17:50:50.248Z,97157.00
2018-09-12T17:53:19.580Z,97159.13
2018-09-12T17:55:49.079Z,97162.21
2018-09-12T17:58:19.085Z,97161.52
2018-09-12T18:00:49.229Z,97170.43
2018-09-12T18:03:18.610Z,97171.13
2018-09-12T18:05:50.092Z,97174.91
2018-09-12T18:08:19.254Z,97177.41
2018-09-12T18:10:48.805Z,97175.09
2018-09-12T18:13:19.616Z,97175.30
2018-09-12T18:15:49.055Z,97181.58
2018-09-12T18:18:18.314Z,97185.28
2018-09-12T18:20:50.519Z,97188.58
2018-09-12T18:23:19.867Z,97194.49
2018-09-12T18:25:50.261Z,97192.61
2018-09-12T18:28:21.027Z,97190.25
2018-09-12T18:30:50.721Z,97196.92
2018-09-12T18:33:20.433Z,97198.03
2018-09-12T18:35:51.697Z,97208.59
2018-09-12T18:38:21.830Z,97218.34
2018-09-12T18:40:51.601Z,97217.73
2018-09-12T18:43:25.519Z,97220.89
2018-09-12T18:45:56.060Z,97220.69
2018-09-12T18:48:25.621Z,97223.49
2018-09-12T18:50:55.047Z,97223.73
2018-09-12T18:53:24.444Z,97226.16
2018-09-12T18:55:54.094Z,97222.56
2018-09-12T18:58:23.906Z,97231.41
2018-09-12T19:00:53.537Z,97232.48
2018-09-12T19:03:23.684Z,97228.30
2018-09-12T19:05:53.665Z,97230.56
2018-09-12T19:08:23.189Z,97233.73
2018-09-12T19:10:53.412Z,97229.16
2018-09-12T19:13:23.258Z,97236.55
2018-09-12T19:15:54.294Z,97234.14
2018-09-12T19:18:23.951Z,97231.80
2018-09-12T19:20:53.800Z,97236.27
2018-09-12T19:23:23.661Z,97239.05
2018-09-12T19:25:53.920Z,97240.11
2018-09-12T19:28:24.476Z,97236.98
2018-09-12T19:30:54.069Z,97243.63
2018-09-12T19:33:24.434Z,97243.44
2018-09-12T19:35:54.929Z,97244.49
2018-09-12T19:38:24.722Z,97247.28
2018-09-12T19:40:54.946Z,97250.91
2018-09-12T19:43:25.389Z,97247.57
2018-09-12T19:45:54.944Z,97248.14
2018-09-12T19:48:24.461Z,97247.41
2018-09-12T19:50:54.389Z,97247.94
2018-09-12T19:53:24.150Z,97247.20
2018-09-12T19:55:54.507Z,97245.54
2018-09-12T19:58:24.279Z,97256.75
2018-09-12T20:00:54.032Z,97256.84
2018-09-12T20:03:24.040Z,97255.13
2018-09-12T20:05:54.762Z,97255.20
2018-09-12T20:08:24.425Z,97251.86
2018-09-12T20:10:54.919Z,97251.09
2018-09-12T20:13:24.565Z,97248.13
2018-09-12T20:15:54.582Z,97243.23
2018-09-12T20:18:24.187Z,97245.16
2018-09-12T20:20:53.732Z,97246.16
2018-09-12T20:23:23.957Z,97245.00
2018-09-12T20:25:53.207Z,97242.55
2018-09-12T20:28:23.612Z,97240.09
2018-09-12T20:30:52.899Z,97233.73
2018-09-12T20:33:24.974Z,97223.17
2018-09-12T20:35:54.357Z,97231.79
2018-09-12T20:38:23.667Z,97234.80
2018-09-12T20:40:52.918Z,97236.98
2018-09-12T20:43:22.104Z,97242.64
2018-09-12T20:45:51.370Z,97234.56
2018-09-12T20:48:20.689Z,97228.67
2018-09-12T20:50:49.932Z,97236.52
2018-09-12T20:53:19.131Z,97224.55
2018-09-12T20:55:50.516Z,97219.51
2018-09-12T20:58:19.715Z,97211.86
2018-09-12T21:00:48.950Z,97216.19
2018-09-12T21:03:18.154Z,97220.52
2018-09-12T21:05:47.455Z,97223.17
2018-09-12T21:08:17.303Z,97222.74
2018-09-12T21:10:47.018Z,97224.92
2018-09-12T21:39:36.113Z,97210.46
2018-09-12T21:42:05.407Z,97213.53
2018-09-12T21:44:34.592Z,97210.53
2018-09-12T21:47:03.846Z,97213.99
2018-09-12T21:49:33.068Z,97216.59
2018-09-12T21:52:02.237Z,97215.84
2018-09-12T21:54:31.413Z,97209.94
2018-09-12T21:57:00.622Z,97207.47
2018-09-12T21:59:29.889Z,97202.45
2018-09-12T22:01:59.053Z,97196.56
2018-09-12T22:04:28.272Z,97191.09
2018-09-12T22:06:57.446Z,97202.25
2018-09-12T22:09:26.636Z,97194.15
2018-09-12T22:11:55.810Z,97195.83
2018-09-12T22:14:24.999Z,97195.83
2018-09-12T22:16:54.237Z,97193.33
2018-09-12T22:19:23.478Z,97194.15
2018-09-12T22:21:52.743Z,97186.47
2018-09-12T22:24:21.940Z,97189.11
2018-09-12T22:26:51.124Z,97183.17
2018-09-12T22:29:20.329Z,97182.38
2018-09-12T22:31:49.572Z,97182.44
2018-09-12T22:34:18.790Z,97176.45
2018-09-12T22:36:47.936Z,97176.88
2018-09-12T22:44:17.484Z,97179.87
2018-09-12T22:46:46.700Z,97179.99
2018-09-12T22:49:16.273Z,97180.02
2018-09-12T22:51:45.478Z,97177.58
2018-09-12T22:54:15.038Z,97176.00
2018-09-12T22:56:44.242Z,97173.55
2018-09-12T22:59:13.831Z,97176.20
2018-09-12T23:01:42.981Z,97173.27
2018-09-12T23:04:13.282Z,97169.47
2018-09-12T23:06:44.328Z,97170.38
2018-09-12T23:09:13.915Z,97173.01
2018-09-12T23:11:43.836Z,97170.50
2018-09-12T23:14:13.316Z,97167.95
2018-09-12T23:16:42.538Z,97161.20
2018-09-12T23:19:11.720Z,97162.95
2018-09-12T23:21:43.015Z,97165.57
2018-09-12T23:24:13.961Z,97156.64
2018-09-12T23:26:47.489Z,97156.22
2018-09-12T23:29:17.083Z,97155.36
2018-09-12T23:31:46.244Z,97143.37
2018-09-12T23:34:15.852Z,97152.74
2018-09-12T23:36:45.263Z,97140.80
2018-09-12T23:39:15.115Z,97139.08
2018-09-12T23:41:44.457Z,97139.97
2018-09-12T23:44:14.028Z,97148.52
2018-09-12T23:46:44.833Z,97150.69
2018-09-12T23:49:14.440Z,97147.74
2018-09-12T23:51:43.577Z,97150.81
2018-09-12T23:54:13.092Z,97152.17
2018-09-12T23:56:42.245Z,97143.66
2018-09-12T23:59:11.421Z,97143.72
